Sydney Regional Office, Australia
Current Conditions -  °F | °C
As of 6:00 PM on Tuesday 21 Oct 2014 (Local Time) from YSSY Reporting Station
Broken Clouds Broken Clouds  
Wind Chill: 63°   Ceiling: 5000
Heat Index: 63°   Visibility: 6mi
Dew Point: 45°   Wind: 10mph
Humidity: 52%   Direction: 70°ENE
Pressure: 30.42"   Gusts: NA
Location:  33.85°S, 151.2°E
Report Text: YSSY 210700Z 07009KT 9999 SCT040 BKN050 17/07 Q1030 NOSIG
Loading
Personal Weather Stations






























Interactive Weather Map
Tropical Storm Tracking
New forecast layout! Learn more

10-Day Weather Forecast

Advertisements
Track Severe Weather on mobile